sensor_id;sensor_type;location;lat;lon;timestamp;pressure;altitude;pressure_sealevel;temperature;humidity
59859;BME280;45734;53.648;9.566;2023-05-01T00:01:12;95277.78;;;-145.06;100.00
59859;BME280;45734;53.648;9.566;2023-05-01T00:06:13;95304.41;;;-145.06;100.00
59859;BME280;45734;53.648;9.566;2023-05-01T00:11:13;95314.63;;;-145.06;100.00
59859;BME280;45734;53.648;9.566;2023-05-01T00:16:14;95279.84;;;-145.06;100.00
59859;BME280;45734;53.648;9.566;2023-05-01T00:21:16;95257.34;;;-145.06;100.00
59859;BME280;45734;53.648;9.566;2023-05-01T00:26:17;95257.34;;;-145.06;100.00
59859;BME280;45734;53.648;9.566;2023-05-01T00:31:17;95298.25;;;-145.06;100.00
59859;BME280;45734;53.648;9.566;2023-05-01T00:36:18;95298.25;;;-145.06;100.00
59859;BME280;45734;53.648;9.566;2023-05-01T00:41:18;95304.41;;;-145.06;100.00
59859;BME280;45734;53.648;9.566;2023-05-01T00:46:18;95281.88;;;-145.06;100.00
59859;BME280;45734;53.648;9.566;2023-05-01T00:51:19;95296.22;;;-145.06;100.00
59859;BME280;45734;53.648;9.566;2023-05-01T00:56:21;95294.16;;;-145.06;100.00
59859;BME280;45734;53.648;9.566;2023-05-01T01:01:22;95314.63;;;-145.06;100.00
59859;BME280;45734;53.648;9.566;2023-05-01T01:06:44;95324.84;;;-145.06;100.00
59859;BME280;45734;53.648;9.566;2023-05-01T01:12:05;95328.94;;;-145.06;100.00
59859;BME280;45734;53.648;9.566;2023-05-01T01:17:26;95326.91;;;-145.06;100.00
59859;BME280;45734;53.648;9.566;2023-05-01T01:22:29;95345.31;;;-145.06;100.00
59859;BME280;45734;53.648;9.566;2023-05-01T01:28:12;95306.44;;;-145.06;100.00
59859;BME280;45734;53.648;9.566;2023-05-01T01:38:41;95312.56;;;-145.06;100.00
59859;BME280;45734;53.648;9.566;2023-05-01T01:43:47;95343.28;;;-145.06;100.00
59859;BME280;45734;53.648;9.566;2023-05-01T01:48:51;95351.47;;;-145.06;100.00
59859;BME280;45734;53.648;9.566;2023-05-01T01:53:55;95322.81;;;-145.06;100.00
59859;BME280;45734;53.648;9.566;2023-05-01T01:59:00;95349.41;;;-145.06;100.00
59859;BME280;45734;53.648;9.566;2023-05-01T02:04:02;95357.59;;;-145.06;100.00
59859;BME280;45734;53.648;9.566;2023-05-01T02:09:05;95337.13;;;-145.06;100.00
59859;BME280;45734;53.648;9.566;2023-05-01T02:14:07;95353.50;;;-145.06;100.00
59859;BME280;45734;53.648;9.566;2023-05-01T02:19:09;95343.28;;;-145.06;100.00
59859;BME280;45734;53.648;9.566;2023-05-01T02:24:10;95425.13;;;-145.06;100.00
59859;BME280;45734;53.648;9.566;2023-05-01T02:29:11;95367.81;;;-145.06;100.00
59859;BME280;45734;53.648;9.566;2023-05-01T02:34:12;95376.00;;;-145.06;100.00
59859;BME280;45734;53.648;9.566;2023-05-01T02:39:12;95378.06;;;-145.06;100.00
59859;BME280;45734;53.648;9.566;2023-05-01T02:44:13;95396.47;;;-145.06;100.00
59859;BME280;45734;53.648;9.566;2023-05-01T02:49:15;95388.28;;;-145.06;100.00
59859;BME280;45734;53.648;9.566;2023-05-01T02:54:16;95367.81;;;-145.06;100.00
59859;BME280;45734;53.648;9.566;2023-05-01T02:59:17;95406.72;;;-145.06;100.00
59859;BME280;45734;53.648;9.566;2023-05-01T03:04:18;95408.75;;;-145.06;100.00
59859;BME280;45734;53.648;9.566;2023-05-01T03:09:18;95392.38;;;-145.06;100.00
59859;BME280;45734;53.648;9.566;2023-05-01T03:14:19;95394.44;;;-145.06;100.00
59859;BME280;45734;53.648;9.566;2023-05-01T03:19:19;95394.44;;;-145.06;100.00
59859;BME280;45734;53.648;9.566;2023-05-01T03:24:19;95390.34;;;-145.06;100.00
59859;BME280;45734;53.648;9.566;2023-05-01T03:29:20;95386.25;;;-145.06;100.00
59859;BME280;45734;53.648;9.566;2023-05-01T03:34:20;95388.28;;;-145.06;100.00
59859;BME280;45734;53.648;9.566;2023-05-01T03:39:21;95373.97;;;-145.06;100.00
59859;BME280;45734;53.648;9.566;2023-05-01T03:44:21;95394.44;;;-145.06;100.00
59859;BME280;45734;53.648;9.566;2023-05-01T03:49:22;95251.19;;;-145.06;100.00
59859;BME280;45734;53.648;9.566;2023-05-01T03:54:22;94414.38;;;-145.06;100.00
59859;BME280;45734;53.648;9.566;2023-05-01T03:59:23;94328.47;;;-145.06;100.00
59859;BME280;45734;53.648;9.566;2023-05-01T04:04:24;94119.81;;;-145.06;100.00
59859;BME280;45734;53.648;9.566;2023-05-01T04:09:24;94070.72;;;-145.06;100.00
59859;BME280;45734;53.648;9.566;2023-05-01T04:14:25;94013.44;;;-145.06;100.00
59859;BME280;45734;53.648;9.566;2023-05-01T04:19:25;94091.16;;;-145.06;100.00
59859;BME280;45734;53.648;9.566;2023-05-01T04:24:25;93982.75;;;-145.06;100.00
59859;BME280;45734;53.648;9.566;2023-05-01T04:29:26;94015.47;;;-145.06;100.00
59859;BME280;45734;53.648;9.566;2023-05-01T04:34:26;94003.22;;;-145.06;100.00
59859;BME280;45734;53.648;9.566;2023-05-01T04:39:28;93986.84;;;-145.06;100.00
59859;BME280;45734;53.648;9.566;2023-05-01T04:44:28;93839.56;;;-145.06;100.00
59859;BME280;45734;53.648;9.566;2023-05-01T04:49:29;93637.06;;;-145.06;100.00
59859;BME280;45734;53.648;9.566;2023-05-01T04:54:30;93700.47;;;-145.06;100.00
59859;BME280;45734;53.648;9.566;2023-05-01T04:59:30;93608.44;;;-145.06;100.00
59859;BME280;45734;53.648;9.566;2023-05-01T05:04:31;93542.97;;;-145.06;100.00
59859;BME280;45734;53.648;9.566;2023-05-01T05:09:32;93459.13;;;-145.06;97.61
59859;BME280;45734;53.648;9.566;2023-05-01T05:14:32;93502.06;;;-145.06;95.04
59859;BME280;45734;53.648;9.566;2023-05-01T05:19:32;93463.22;;;-145.06;93.46
59859;BME280;45734;53.648;9.566;2023-05-01T05:24:33;93350.72;;;-145.06;89.27
59859;BME280;45734;53.648;9.566;2023-05-01T05:29:33;93135.97;;;-145.06;85.46
59859;BME280;45734;53.648;9.566;2023-05-01T05:34:34;93148.25;;;-145.06;73.21
59859;BME280;45734;53.648;9.566;2023-05-01T05:39:34;92962.16;;;-145.06;65.74
59859;BME280;45734;53.648;9.566;2023-05-01T05:44:34;92714.72;;;-145.06;60.47
59859;BME280;45734;53.648;9.566;2023-05-01T05:49:35;92544.97;;;-145.06;56.21
59859;BME280;45734;53.648;9.566;2023-05-01T05:54:35;92485.69;;;-145.06;51.19
59859;BME280;45734;53.648;9.566;2023-05-01T05:59:35;92479.56;;;-145.06;48.18
59859;BME280;45734;53.648;9.566;2023-05-01T06:04:36;92428.44;;;-145.06;47.01
59859;BME280;45734;53.648;9.566;2023-05-01T06:09:36;92369.13;;;-145.06;47.64
59859;BME280;45734;53.648;9.566;2023-05-01T06:14:37;92262.81;;;-145.06;47.36
59859;BME280;45734;53.648;9.566;2023-05-01T06:19:37;92148.31;;;-145.06;44.57
59859;BME280;45734;53.648;9.566;2023-05-01T06:24:38;92076.75;;;-145.06;43.17
59859;BME280;45734;53.648;9.566;2023-05-01T06:29:38;92127.88;;;-145.06;41.96
59859;BME280;45734;53.648;9.566;2023-05-01T06:34:39;92281.22;;;-145.06;41.04
59859;BME280;45734;53.648;9.566;2023-05-01T06:39:39;92358.91;;;-145.06;41.52
59859;BME280;45734;53.648;9.566;2023-05-01T06:44:40;92610.41;;;-145.06;42.26
59859;BME280;45734;53.648;9.566;2023-05-01T06:49:40;92598.16;;;-145.06;44.00
59859;BME280;45734;53.648;9.566;2023-05-01T06:54:42;92544.97;;;-145.06;44.08
59859;BME280;45734;53.648;9.566;2023-05-01T06:59:42;92530.66;;;-145.06;45.77
59859;BME280;45734;53.648;9.566;2023-05-01T07:04:43;92577.69;;;-145.06;45.00
59859;BME280;45734;53.648;9.566;2023-05-01T07:09:44;92420.25;;;-145.06;44.01
59859;BME280;45734;53.648;9.566;2023-05-01T07:14:44;92457.06;;;-145.06;43.51
59859;BME280;45734;53.648;9.566;2023-05-01T07:19:44;92365.03;;;-145.06;45.19
59859;BME280;45734;53.648;9.566;2023-05-01T07:24:45;92495.91;;;-145.06;43.96
59859;BME280;45734;53.648;9.566;2023-05-01T07:29:45;92285.31;;;-145.06;45.18
59859;BME280;45734;53.648;9.566;2023-05-01T07:34:45;92299.63;;;-145.06;42.02
59859;BME280;45734;53.648;9.566;2023-05-01T07:39:46;92424.34;;;-145.06;45.22
59859;BME280;45734;53.648;9.566;2023-05-01T07:44:46;92360.97;;;-145.06;42.26
59859;BME280;45734;53.648;9.566;2023-05-01T07:49:46;92330.28;;;-145.06;41.19
59859;BME280;45734;53.648;9.566;2023-05-01T07:54:51;92422.28;;;-145.06;42.53
59859;BME280;45734;53.648;9.566;2023-05-01T07:59:54;92569.53;;;-145.06;43.51
59859;BME280;45734;53.648;9.566;2023-05-01T08:04:55;92248.50;;;-145.06;44.98
59859;BME280;45734;53.648;9.566;2023-05-01T08:09:56;92246.44;;;-145.06;41.75
59859;BME280;45734;53.648;9.566;2023-05-01T08:14:56;92256.69;;;-145.06;44.70
59859;BME280;45734;53.648;9.566;2023-05-01T08:19:56;92430.47;;;-145.06;42.86
59859;BME280;45734;53.648;9.566;2023-05-01T08:24:56;92391.63;;;-145.06;42.44
59859;BME280;45734;53.648;9.566;2023-05-01T08:29:57;92305.75;;;-145.06;40.66
59859;BME280;45734;53.648;9.566;2023-05-01T08:34:57;92089.03;;;-145.06;39.92
59859;BME280;45734;53.648;9.566;2023-05-01T08:39:58;92086.97;;;-145.06;41.71
59859;BME280;45734;53.648;9.566;2023-05-01T08:44:59;92019.50;;;-145.06;37.79
59859;BME280;45734;53.648;9.566;2023-05-01T08:50:00;92021.53;;;-145.06;37.90
59859;BME280;45734;53.648;9.566;2023-05-01T08:55:02;92013.38;;;-145.06;36.35
59859;BME280;45734;53.648;9.566;2023-05-01T09:00:04;92062.44;;;-145.06;38.58
59859;BME280;45734;53.648;9.566;2023-05-01T09:05:06;92119.69;;;-145.06;40.05
59859;BME280;45734;53.648;9.566;2023-05-01T09:10:07;92070.63;;;-145.06;39.37
59859;BME280;45734;53.648;9.566;2023-05-01T09:15:08;92046.06;;;-145.06;35.51
59859;BME280;45734;53.648;9.566;2023-05-01T09:20:09;92287.34;;;-145.06;37.79
59859;BME280;45734;53.648;9.566;2023-05-01T09:25:09;92226.00;;;-145.06;40.40
59859;BME280;45734;53.648;9.566;2023-05-01T09:30:28;92074.69;;;-145.06;36.53
59859;BME280;45734;53.648;9.566;2023-05-01T09:35:29;92044.03;;;-145.06;36.52
59859;BME280;45734;53.648;9.566;2023-05-01T09:40:30;92070.63;;;-145.06;37.20
59859;BME280;45734;53.648;9.566;2023-05-01T09:45:30;92195.34;;;-145.06;37.87
59859;BME280;45734;53.648;9.566;2023-05-01T09:50:32;92134.00;;;-145.06;37.27
59859;BME280;45734;53.648;9.566;2023-05-01T09:55:33;92236.22;;;-145.06;34.41
59859;BME280;45734;53.648;9.566;2023-05-01T10:00:46;92369.13;;;-145.06;37.36
59859;BME280;45734;53.648;9.566;2023-05-01T10:05:48;92228.06;;;-145.06;37.74
59859;BME280;45734;53.648;9.566;2023-05-01T10:11:03;92209.66;;;-145.06;38.53
59859;BME280;45734;53.648;9.566;2023-05-01T10:16:04;92187.16;;;-145.06;34.23
59859;BME280;45734;53.648;9.566;2023-05-01T10:21:06;92307.78;;;-145.06;34.97
59859;BME280;45734;53.648;9.566;2023-05-01T10:26:12;92256.69;;;-145.06;34.23
59859;BME280;45734;53.648;9.566;2023-05-01T10:31:12;92328.25;;;-145.06;38.42
59859;BME280;45734;53.648;9.566;2023-05-01T10:36:44;92258.72;;;-145.06;36.00
59859;BME280;45734;53.648;9.566;2023-05-01T10:58:09;92320.06;;;-145.06;33.34
59859;BME280;45734;53.648;9.566;2023-05-01T11:08:37;92311.88;;;-145.06;33.11
59859;BME280;45734;53.648;9.566;2023-05-01T11:13:56;92305.75;;;-145.06;33.71
59859;BME280;45734;53.648;9.566;2023-05-01T11:18:57;92307.78;;;-145.06;35.65
59859;BME280;45734;53.648;9.566;2023-05-01T11:23:58;92336.41;;;-145.06;35.87
59859;BME280;45734;53.648;9.566;2023-05-01T11:29:00;92324.16;;;-145.06;34.66
59859;BME280;45734;53.648;9.566;2023-05-01T11:34:01;92342.56;;;-145.06;37.05
59859;BME280;45734;53.648;9.566;2023-05-01T11:39:02;92363.00;;;-145.06;39.50
59859;BME280;45734;53.648;9.566;2023-05-01T11:44:03;92291.44;;;-145.06;36.04
59859;BME280;45734;53.648;9.566;2023-05-01T11:49:04;92242.38;;;-145.06;34.27
59859;BME280;45734;53.648;9.566;2023-05-01T11:54:08;92185.13;;;-145.06;33.56
59859;BME280;45734;53.648;9.566;2023-05-01T11:59:14;92266.91;;;-145.06;35.07
59859;BME280;45734;53.648;9.566;2023-05-01T12:04:25;92287.34;;;-145.06;35.22
59859;BME280;45734;53.648;9.566;2023-05-01T12:09:29;92283.25;;;-145.06;35.91
59859;BME280;45734;53.648;9.566;2023-05-01T12:14:30;92213.75;;;-145.06;36.26
59859;BME280;45734;53.648;9.566;2023-05-01T12:19:31;92254.63;;;-145.06;37.26
59859;BME280;45734;53.648;9.566;2023-05-01T12:24:31;92193.28;;;-145.06;35.53
59859;BME280;45734;53.648;9.566;2023-05-01T12:29:41;92248.50;;;-145.06;38.58
59859;BME280;45734;53.648;9.566;2023-05-01T12:34:41;92250.53;;;-145.06;38.78
59859;BME280;45734;53.648;9.566;2023-05-01T12:39:42;92248.50;;;-145.06;38.00
59859;BME280;45734;53.648;9.566;2023-05-01T12:44:43;92189.19;;;-145.06;35.87
59859;BME280;45734;53.648;9.566;2023-05-01T12:49:44;92221.91;;;-145.06;37.52
59859;BME280;45734;53.648;9.566;2023-05-01T12:54:44;92168.75;;;-145.06;36.39
59859;BME280;45734;53.648;9.566;2023-05-01T12:59:45;92031.78;;;-145.06;32.79
59859;BME280;45734;53.648;9.566;2023-05-01T13:04:48;92277.13;;;-145.06;38.71
59859;BME280;45734;53.648;9.566;2023-05-01T13:09:53;92168.75;;;-145.06;36.05
59859;BME280;45734;53.648;9.566;2023-05-01T13:14:54;92131.94;;;-145.06;35.55
59859;BME280;45734;53.648;9.566;2023-05-01T13:20:00;92178.97;;;-145.06;36.07
59859;BME280;45734;53.648;9.566;2023-05-01T13:25:03;92258.72;;;-145.06;38.87
59859;BME280;45734;53.648;9.566;2023-05-01T13:30:04;92765.84;;;-145.06;36.88
59859;BME280;45734;53.648;9.566;2023-05-01T13:35:07;92720.84;;;-145.06;36.39
59859;BME280;45734;53.648;9.566;2023-05-01T13:40:08;92778.09;;;-145.06;35.86
59859;BME280;45734;53.648;9.566;2023-05-01T13:45:09;92647.22;;;-145.06;37.02
59859;BME280;45734;53.648;9.566;2023-05-01T13:50:13;92450.94;;;-145.06;37.51
59859;BME280;45734;53.648;9.566;2023-05-01T13:55:15;92649.28;;;-145.06;38.71
59859;BME280;45734;53.648;9.566;2023-05-01T14:00:16;92524.53;;;-145.06;37.21
59859;BME280;45734;53.648;9.566;2023-05-01T14:05:24;92375.28;;;-145.06;38.84
59859;BME280;45734;53.648;9.566;2023-05-01T14:10:27;92485.69;;;-145.06;39.05
59859;BME280;45734;53.648;9.566;2023-05-01T14:15:28;92385.50;;;-145.06;40.50
59859;BME280;45734;53.648;9.566;2023-05-01T14:20:28;92455.00;;;-145.06;38.73
59859;BME280;45734;53.648;9.566;2023-05-01T14:25:31;92522.50;;;-145.06;40.25
59859;BME280;45734;53.648;9.566;2023-05-01T14:30:35;92487.72;;;-145.06;40.41
59859;BME280;45734;53.648;9.566;2023-05-01T14:35:49;92589.97;;;-145.06;39.08
59859;BME280;45734;53.648;9.566;2023-05-01T14:40:50;92696.31;;;-145.06;39.51
59859;BME280;45734;53.648;9.566;2023-05-01T14:45:51;93093.03;;;-145.06;41.06
59859;BME280;45734;53.648;9.566;2023-05-01T14:50:51;93268.91;;;-145.06;41.55
59859;BME280;45734;53.648;9.566;2023-05-01T14:55:53;93322.09;;;-145.06;41.53
59859;BME280;45734;53.648;9.566;2023-05-01T15:00:54;93338.47;;;-145.06;43.54
59859;BME280;45734;53.648;9.566;2023-05-01T15:05:54;92931.47;;;-145.06;44.43
59859;BME280;45734;53.648;9.566;2023-05-01T15:10:55;92682.00;;;-145.06;45.17
59859;BME280;45734;53.648;9.566;2023-05-01T15:15:56;92594.06;;;-145.06;45.25
59859;BME280;45734;53.648;9.566;2023-05-01T15:20:56;92569.53;;;-145.06;45.52
59859;BME280;45734;53.648;9.566;2023-05-01T15:25:57;92653.38;;;-145.06;47.26
59859;BME280;45734;53.648;9.566;2023-05-01T15:30:57;92763.78;;;-145.06;46.72
59859;BME280;45734;53.648;9.566;2023-05-01T15:35:57;92743.34;;;-145.06;46.83
59859;BME280;45734;53.648;9.566;2023-05-01T15:40:58;92761.75;;;-145.06;49.40
59859;BME280;45734;53.648;9.566;2023-05-01T15:45:58;92767.88;;;-145.06;47.73
59859;BME280;45734;53.648;9.566;2023-05-01T15:50:58;92839.44;;;-145.06;47.78
59859;BME280;45734;53.648;9.566;2023-05-01T15:55:59;92839.44;;;-145.06;48.46
59859;BME280;45734;53.648;9.566;2023-05-01T16:00:59;92884.44;;;-145.06;47.80
59859;BME280;45734;53.648;9.566;2023-05-01T16:05:59;92872.16;;;-145.06;48.95
59859;BME280;45734;53.648;9.566;2023-05-01T16:11:00;92917.16;;;-145.06;48.17
59859;BME280;45734;53.648;9.566;2023-05-01T16:16:01;92943.75;;;-145.06;48.48
59859;BME280;45734;53.648;9.566;2023-05-01T16:21:01;93046.00;;;-145.06;48.95
59859;BME280;45734;53.648;9.566;2023-05-01T16:26:01;93101.22;;;-145.06;48.14
59859;BME280;45734;53.648;9.566;2023-05-01T16:31:02;93160.53;;;-145.06;47.46
59859;BME280;45734;53.648;9.566;2023-05-01T16:36:02;93162.56;;;-145.06;47.73
59859;BME280;45734;53.648;9.566;2023-05-01T16:41:02;93401.84;;;-145.06;49.19
59859;BME280;45734;53.648;9.566;2023-05-01T16:46:03;93549.13;;;-145.06;52.02
59859;BME280;45734;53.648;9.566;2023-05-01T16:51:04;93340.50;;;-145.06;51.26
59859;BME280;45734;53.648;9.566;2023-05-01T16:56:05;93260.75;;;-145.06;50.80
59859;BME280;45734;53.648;9.566;2023-05-01T17:01:08;93244.38;;;-145.06;50.42
59859;BME280;45734;53.648;9.566;2023-05-01T17:06:08;93371.19;;;-145.06;49.68
59859;BME280;45734;53.648;9.566;2023-05-01T17:11:09;93338.47;;;-145.06;49.22
59859;BME280;45734;53.648;9.566;2023-05-01T17:16:10;93508.22;;;-145.06;49.82
59859;BME280;45734;53.648;9.566;2023-05-01T17:21:10;93583.88;;;-145.06;50.80
59859;BME280;45734;53.648;9.566;2023-05-01T17:26:11;93690.25;;;-145.06;49.96
59859;BME280;45734;53.648;9.566;2023-05-01T17:31:14;93780.25;;;-145.06;52.10
59859;BME280;45734;53.648;9.566;2023-05-01T17:36:15;93827.28;;;-145.06;52.88
59859;BME280;45734;53.648;9.566;2023-05-01T17:41:16;93845.69;;;-145.06;53.81
59859;BME280;45734;53.648;9.566;2023-05-01T17:46:16;93857.97;;;-145.06;53.42
59859;BME280;45734;53.648;9.566;2023-05-01T17:51:17;93882.53;;;-145.06;54.29
59859;BME280;45734;53.648;9.566;2023-05-01T17:56:17;93923.44;;;-145.06;55.49
59859;BME280;45734;53.648;9.566;2023-05-01T18:01:18;93907.06;;;-145.06;56.11
59859;BME280;45734;53.648;9.566;2023-05-01T18:06:19;93956.16;;;-145.06;55.93
59859;BME280;45734;53.648;9.566;2023-05-01T18:11:19;94015.47;;;-145.06;56.85
59859;BME280;45734;53.648;9.566;2023-05-01T18:16:20;93947.97;;;-145.06;58.40
59859;BME280;45734;53.648;9.566;2023-05-01T18:21:21;94078.91;;;-145.06;60.23
59859;BME280;45734;53.648;9.566;2023-05-01T18:26:21;94128.00;;;-145.06;61.67
59859;BME280;45734;53.648;9.566;2023-05-01T18:31:22;94080.94;;;-145.06;60.81
59859;BME280;45734;53.648;9.566;2023-05-01T18:36:22;94128.00;;;-145.06;60.28
59859;BME280;45734;53.648;9.566;2023-05-01T18:41:23;94230.28;;;-145.06;61.43
59859;BME280;45734;53.648;9.566;2023-05-01T18:46:24;94156.63;;;-145.06;63.19
59859;BME280;45734;53.648;9.566;2023-05-01T18:51:24;94181.19;;;-145.06;65.25
59859;BME280;45734;53.648;9.566;2023-05-01T18:56:25;94226.19;;;-145.06;67.29
59859;BME280;45734;53.648;9.566;2023-05-01T19:01:26;94222.09;;;-145.06;68.56
59859;BME280;45734;53.648;9.566;2023-05-01T19:06:27;94285.50;;;-145.06;69.74
59859;BME280;45734;53.648;9.566;2023-05-01T19:11:27;94299.81;;;-145.06;72.26
59859;BME280;45734;53.648;9.566;2023-05-01T19:16:30;94355.06;;;-145.06;74.18
59859;BME280;45734;53.648;9.566;2023-05-01T19:21:31;94320.28;;;-145.06;78.06
59859;BME280;45734;53.648;9.566;2023-05-01T19:26:31;94389.84;;;-145.06;82.76
59859;BME280;45734;53.648;9.566;2023-05-01T19:31:31;94414.38;;;-145.06;88.10
59859;BME280;45734;53.648;9.566;2023-05-01T19:36:32;94432.81;;;-145.06;93.78
59859;BME280;45734;53.648;9.566;2023-05-01T19:41:32;94488.03;;;-145.06;94.34
59859;BME280;45734;53.648;9.566;2023-05-01T19:46:32;94477.81;;;-145.06;93.78
59859;BME280;45734;53.648;9.566;2023-05-01T19:51:33;94398.03;;;-145.06;94.48
59859;BME280;45734;53.648;9.566;2023-05-01T19:56:33;94459.41;;;-145.06;94.80
59859;BME280;45734;53.648;9.566;2023-05-01T20:01:33;94465.53;;;-145.06;98.64
59859;BME280;45734;53.648;9.566;2023-05-01T20:06:34;94457.34;;;-145.06;99.67
59859;BME280;45734;53.648;9.566;2023-05-01T20:11:34;94465.53;;;-145.06;97.68
59859;BME280;45734;53.648;9.566;2023-05-01T20:16:34;94449.16;;;-145.06;97.74
59859;BME280;45734;53.648;9.566;2023-05-01T20:21:35;94467.56;;;-145.06;98.62
59859;BME280;45734;53.648;9.566;2023-05-01T20:26:36;94447.13;;;-145.06;94.01
59859;BME280;45734;53.648;9.566;2023-05-01T20:31:36;94434.84;;;-145.06;91.45
59859;BME280;45734;53.648;9.566;2023-05-01T20:36:36;94469.63;;;-145.06;91.03
59859;BME280;45734;53.648;9.566;2023-05-01T20:41:37;94479.84;;;-145.06;93.61
59859;BME280;45734;53.648;9.566;2023-05-01T20:46:37;94496.22;;;-145.06;94.99
59859;BME280;45734;53.648;9.566;2023-05-01T20:51:38;94508.50;;;-145.06;96.69
59859;BME280;45734;53.648;9.566;2023-05-01T20:56:38;94516.69;;;-145.06;96.90
59859;BME280;45734;53.648;9.566;2023-05-01T21:01:39;94479.84;;;-145.06;97.54
59859;BME280;45734;53.648;9.566;2023-05-01T21:06:39;94528.94;;;-145.06;98.15
59859;BME280;45734;53.648;9.566;2023-05-01T21:11:39;94492.13;;;-145.06;98.52
59859;BME280;45734;53.648;9.566;2023-05-01T21:16:40;94504.41;;;-145.06;99.97
59859;BME280;45734;53.648;9.566;2023-05-01T21:21:40;94524.88;;;-145.06;100.00
59859;BME280;45734;53.648;9.566;2023-05-01T21:26:41;94524.88;;;-145.06;100.00
59859;BME280;45734;53.648;9.566;2023-05-01T21:31:41;94492.13;;;-145.06;100.00
59859;BME280;45734;53.648;9.566;2023-05-01T21:36:42;94471.66;;;-145.06;100.00
59859;BME280;45734;53.648;9.566;2023-05-01T21:41:46;94512.59;;;-145.06;100.00
59859;BME280;45734;53.648;9.566;2023-05-01T21:46:49;94488.03;;;-145.06;100.00
59859;BME280;45734;53.648;9.566;2023-05-01T21:51:49;94430.75;;;-145.06;96.57
59859;BME280;45734;53.648;9.566;2023-05-01T21:56:50;94457.34;;;-145.06;95.11
59859;BME280;45734;53.648;9.566;2023-05-01T22:01:50;94463.50;;;-145.06;96.39
59859;BME280;45734;53.648;9.566;2023-05-01T22:06:50;94434.84;;;-145.06;96.18
59859;BME280;45734;53.648;9.566;2023-05-01T22:11:51;94459.41;;;-145.06;98.18
59859;BME280;45734;53.648;9.566;2023-05-01T22:16:52;94477.81;;;-145.06;100.00
59859;BME280;45734;53.648;9.566;2023-05-01T22:21:52;94514.63;;;-145.06;100.00
59859;BME280;45734;53.648;9.566;2023-05-01T22:26:52;94563.72;;;-145.06;100.00
59859;BME280;45734;53.648;9.566;2023-05-01T22:31:53;94551.47;;;-145.06;100.00
59859;BME280;45734;53.648;9.566;2023-05-01T22:36:53;94571.91;;;-145.06;100.00
59859;BME280;45734;53.648;9.566;2023-05-01T22:41:53;94563.72;;;-145.06;100.00
59859;BME280;45734;53.648;9.566;2023-05-01T22:46:54;94608.75;;;-145.06;100.00
59859;BME280;45734;53.648;9.566;2023-05-01T22:51:55;94610.78;;;-145.06;100.00
59859;BME280;45734;53.648;9.566;2023-05-01T22:56:56;94645.56;;;-145.06;100.00
59859;BME280;45734;53.648;9.566;2023-05-01T23:01:56;94555.53;;;-145.06;100.00
59859;BME280;45734;53.648;9.566;2023-05-01T23:06:56;94627.16;;;-145.06;100.00
59859;BME280;45734;53.648;9.566;2023-05-01T23:11:57;94614.88;;;-145.06;100.00
59859;BME280;45734;53.648;9.566;2023-05-01T23:16:59;94668.06;;;-145.06;100.00
59859;BME280;45734;53.648;9.566;2023-05-01T23:22:05;94709.00;;;-145.06;100.00
59859;BME280;45734;53.648;9.566;2023-05-01T23:27:09;94723.31;;;-145.06;100.00
59859;BME280;45734;53.648;9.566;2023-05-01T23:32:21;94717.16;;;-145.06;100.00
59859;BME280;45734;53.648;9.566;2023-05-01T23:37:22;94711.03;;;-145.06;100.00
59859;BME280;45734;53.648;9.566;2023-05-01T23:42:23;94713.09;;;-145.06;100.00
59859;BME280;45734;53.648;9.566;2023-05-01T23:47:23;94688.53;;;-145.06;100.00
59859;BME280;45734;53.648;9.566;2023-05-01T23:52:23;94758.09;;;-145.06;100.00
59859;BME280;45734;53.648;9.566;2023-05-01T23:57:24;94768.31;;;-145.06;100.00
